Terminal Aerodrome Forecast
Issued by NWS

Home | Current Version | Previous Version | Text Only | Print | Product List | Glossary Off
Versions: 1 2 3 4 5 6 7 8 9 10 11 12 13 14 15 16 17 18 19 20 21 22 23 24 25 26 27 28 29 30

000
FTUS43 KLOT 180500
TAFMDW
TAF
KMDW 180530Z 1806/1906 03005KT P6SM SCT040 BKN120
     FM181000 03007KT P6SM SCT040
     FM181800 06012KT P6SM FEW050
     FM190300 07008KT P6SM FEW200=

USA.gov is the U.S. government's official web portal to all federal, state and local government web resources and services.